Chaffee, Missouri
Current Conditions -  °F | °C
As of 8:53 AM on Thursday 30 Oct 2014 (Local Time) from KCGI Reporting Station
Moderate Fog Moderate Fog  
Wind Chill: 40°   Ceiling: 100
Heat Index: 40°   Visibility: 0.25mi
Dew Point: 39°   Wind: 3mph
Humidity: 97%   Direction: 90°E
Pressure: 30.18"   Gusts: NA
Location:  37.18°N, 89.66°W
Report Text: KCGI 301353Z 09003KT 1/4SM FG VV001 04/04 A3018 RMK AO2 SLP222 T00440039
Loading
Personal Weather Stations






























Interactive Weather Map
Tropical Storm Tracking
New forecast layout! Learn more

10-Day Weather Forecast

Advertisements
Track Severe Weather on mobile